Szeged, Hungary
Current Conditions -  °F | °C
As of 8:45 AM on Monday 24 Nov 2014 (Local Time) from LHUD Reporting Station
Light Fog Light Fog  
Wind Chill: 34°   Ceiling: Unl
Heat Index: 34°   Visibility: 1.8mi
Dew Point: 32°   Wind: 3mph
Humidity: 93%   Direction: 40°NE
Pressure: 30.39"   Gusts: NA
Location:  46.26°N, 20.16°E
Report Text: LHUD 240645Z 04003KT 3000 MIFG FEW026 01/00 Q1029
Loading
Personal Weather Stations






























Interactive Weather Map New forecast layout! Learn more

10-Day Weather Forecast

Advertisements
Track Severe Weather on mobile